TRA46G LPPT-EHEH
Flight info
| Callsign | TRA46G |
|---|---|
| Flight time | N/A |
| Altitude | 36000 |
| Route | IXIDA DCT TOSDI/N0436F380 DCT ZMR DCT NUBLO DCT RONSI DCT DELOG DCT DIDIG DCT USODA DCT ERCUT DCT DITAL DCT ELCOB DCT PODEM DCT BAZOS DCT BELDI DCT VEKIN DCT ADUTO N873 FERDI Y18 DENUT |
| Aircraft | B738/M-SDE2E3FGHIRWXY/LB1 |
Departure
| Time | N/A |
|---|---|
| Airport | Lisbon Humberto Delgado Airport (LPPT) |
Arrival
| Time | 2026-04-30 19:52 |
|---|---|
| Airport | Eindhoven Airport (EHEH) |
| Time | Latitude | Longitude | Altitude | Speed | Heading |
|---|---|---|---|---|---|
| 2026-04-30 17:39 | 39.53116 | -8.26734 | 30632 ft | 473 kts | 46° |
| 2026-04-30 17:41 | 39.71415 | -8.02644 | 33719 ft | 465 kts | 47° |
| 2026-04-30 17:42 | 39.75945 | -7.96649 | 34366 ft | 464 kts | 47° |
| 2026-04-30 17:42 | 39.82746 | -7.87627 | 35115 ft | 466 kts | 47° |
| 2026-04-30 17:43 | 39.87267 | -7.81615 | 35709 ft | 464 kts | 47° |
| 2026-04-30 17:44 | 39.94061 | -7.72556 | 36079 ft | 471 kts | 47° |
| 2026-04-30 17:44 | 40.00883 | -7.63436 | 36065 ft | 463 kts | 47° |
| 2026-04-30 17:47 | 40.21000 | -7.36371 | 36082 ft | 462 kts | 47° |
| 2026-04-30 17:48 | 40.36643 | -7.15155 | 36081 ft | 463 kts | 47° |
| 2026-04-30 17:50 | 40.54491 | -6.90763 | 36074 ft | 463 kts | 47° |
| 2026-04-30 17:52 | 40.67830 | -6.72401 | 36073 ft | 462 kts | 47° |
| 2026-04-30 17:54 | 40.88006 | -6.45303 | 36070 ft | 464 kts | 33° |
| 2026-04-30 17:55 | 40.99628 | -6.37452 | 36890 ft | 467 kts | 26° |
| 2026-04-30 17:56 | 41.11210 | -6.29708 | 37838 ft | 467 kts | 27° |
| 2026-04-30 17:57 | 41.19937 | -6.23787 | 38094 ft | 473 kts | 27° |
| 2026-04-30 17:58 | 41.28732 | -6.17802 | 38083 ft | 474 kts | 27° |
| 2026-04-30 18:00 | 41.52128 | -6.01801 | 38082 ft | 471 kts | 27° |
| 2026-04-30 18:01 | 41.66657 | -5.91798 | 38083 ft | 470 kts | 27° |
| 2026-04-30 18:02 | 41.84065 | -5.79746 | 38085 ft | 470 kts | 27° |
| 2026-04-30 18:04 | 42.01494 | -5.67604 | 38093 ft | 471 kts | 27° |
| 2026-04-30 18:06 | 42.24776 | -5.51266 | 38097 ft | 472 kts | 27° |
| 2026-04-30 18:08 | 42.45152 | -5.36855 | 38103 ft | 472 kts | 27° |
| 2026-04-30 18:10 | 42.68307 | -5.20348 | 38122 ft | 473 kts | 26° |
| 2026-04-30 18:11 | 42.80143 | -5.11859 | 38116 ft | 484 kts | 26° |
| 2026-04-30 18:11 | 42.89087 | -5.05417 | 38110 ft | 486 kts | 26° |
| 2026-04-30 18:13 | 43.04013 | -4.94618 | 38099 ft | 484 kts | 26° |
| 2026-04-30 18:14 | 43.18778 | -4.83877 | 38131 ft | 480 kts | 26° |
| 2026-04-30 18:15 | 43.36423 | -4.70965 | 38143 ft | 478 kts | 26° |
| 2026-04-30 18:16 | 43.48112 | -4.62363 | 38141 ft | 476 kts | 26° |
| 2026-04-30 18:17 | 43.53975 | -4.58034 | 38138 ft | 476 kts | 26° |
| 2026-04-30 18:18 | 43.62705 | -4.51570 | 38135 ft | 475 kts | 26° |
| 2026-04-30 18:18 | 43.68518 | -4.47255 | 38136 ft | 475 kts | 26° |
| 2026-04-30 18:19 | 43.74345 | -4.42919 | 38136 ft | 475 kts | 26° |
| 2026-04-30 18:19 | 43.80171 | -4.38575 | 38135 ft | 475 kts | 26° |
| 2026-04-30 18:20 | 43.85972 | -4.34239 | 38134 ft | 475 kts | 26° |
| 2026-04-30 18:20 | 43.91807 | -4.29868 | 38130 ft | 476 kts | 26° |
| 2026-04-30 18:21 | 43.97606 | -4.25514 | 38140 ft | 476 kts | 26° |
| 2026-04-30 18:21 | 44.03442 | -4.21123 | 38126 ft | 476 kts | 26° |
| 2026-04-30 18:22 | 44.09280 | -4.16720 | 38131 ft | 476 kts | 26° |
| 2026-04-30 18:22 | 44.17967 | -4.10149 | 38141 ft | 476 kts | 26° |
| 2026-04-30 18:23 | 44.23793 | -4.05730 | 38127 ft | 475 kts | 26° |
| 2026-04-30 18:23 | 44.28632 | -4.02052 | 38127 ft | 475 kts | 26° |
| 2026-04-30 18:24 | 44.37150 | -3.94951 | 38143 ft | 476 kts | 32° |
| 2026-04-30 18:25 | 44.42563 | -3.89573 | 38127 ft | 477 kts | 33° |
| 2026-04-30 18:25 | 44.50625 | -3.81534 | 38131 ft | 476 kts | 33° |
| 2026-04-30 18:26 | 44.58766 | -3.73532 | 38134 ft | 475 kts | 32° |
| 2026-04-30 18:27 | 44.66894 | -3.65544 | 38123 ft | 474 kts | 32° |
| 2026-04-30 18:28 | 44.74962 | -3.57579 | 38128 ft | 474 kts | 33° |
| 2026-04-30 18:28 | 44.83053 | -3.49564 | 38128 ft | 473 kts | 33° |
| 2026-04-30 18:29 | 44.93827 | -3.38844 | 38132 ft | 473 kts | 32° |
| 2026-04-30 18:30 | 45.04536 | -3.28141 | 38128 ft | 472 kts | 33° |
| 2026-04-30 18:31 | 45.12546 | -3.20102 | 38127 ft | 471 kts | 33° |
| 2026-04-30 18:32 | 45.20572 | -3.12020 | 38122 ft | 471 kts | 33° |
| 2026-04-30 18:33 | 45.28553 | -3.03953 | 38128 ft | 470 kts | 33° |
| 2026-04-30 18:33 | 45.36513 | -2.95880 | 38130 ft | 469 kts | 33° |
| 2026-04-30 18:34 | 45.44489 | -2.87762 | 38128 ft | 468 kts | 33° |
| 2026-04-30 18:35 | 45.49757 | -2.82383 | 38116 ft | 468 kts | 33° |
| 2026-04-30 18:35 | 45.55044 | -2.76974 | 38134 ft | 467 kts | 33° |
| 2026-04-30 18:36 | 45.62944 | -2.68867 | 38129 ft | 467 kts | 33° |
| 2026-04-30 18:37 | 45.70863 | -2.60710 | 38135 ft | 466 kts | 33° |
| 2026-04-30 18:37 | 45.76125 | -2.55275 | 38130 ft | 466 kts | 34° |
| 2026-04-30 18:38 | 45.81356 | -2.49858 | 38119 ft | 465 kts | 34° |
| 2026-04-30 18:38 | 45.86602 | -2.44412 | 38136 ft | 465 kts | 34° |
| 2026-04-30 18:39 | 45.91847 | -2.38955 | 38133 ft | 465 kts | 34° |
| 2026-04-30 18:39 | 45.97052 | -2.33527 | 38128 ft | 465 kts | 34° |
| 2026-04-30 18:40 | 46.02291 | -2.28050 | 38123 ft | 464 kts | 34° |
| 2026-04-30 18:40 | 46.07534 | -2.22637 | 38121 ft | 464 kts | 32° |
| 2026-04-30 18:41 | 46.12935 | -2.17548 | 38120 ft | 463 kts | 31° |
| 2026-04-30 18:41 | 46.18333 | -2.12546 | 38130 ft | 463 kts | 31° |
| 2026-04-30 18:42 | 46.23739 | -2.07464 | 38118 ft | 463 kts | 32° |
| 2026-04-30 18:42 | 46.31791 | -1.99806 | 38114 ft | 462 kts | 32° |
| 2026-04-30 18:45 | 46.61174 | -1.71598 | 38127 ft | 459 kts | 33° |
| 2026-04-30 18:46 | 46.66486 | -1.66460 | 38127 ft | 459 kts | 33° |
| 2026-04-30 18:46 | 46.71820 | -1.61287 | 38126 ft | 459 kts | 33° |
| 2026-04-30 18:47 | 46.77110 | -1.56145 | 38130 ft | 459 kts | 33° |
| 2026-04-30 18:47 | 46.82407 | -1.50984 | 38128 ft | 459 kts | 33° |
| 2026-04-30 18:48 | 46.87722 | -1.45792 | 38127 ft | 459 kts | 33° |
| 2026-04-30 18:48 | 46.93031 | -1.40594 | 38127 ft | 459 kts | 33° |
| 2026-04-30 18:49 | 46.98159 | -1.35101 | 38110 ft | 459 kts | 44° |
| 2026-04-30 18:49 | 47.02470 | -1.28168 | 38125 ft | 460 kts | 49° |
| 2026-04-30 18:50 | 47.06666 | -1.21129 | 38121 ft | 461 kts | 49° |
| 2026-04-30 18:50 | 47.10933 | -1.14052 | 38136 ft | 462 kts | 48° |
| 2026-04-30 18:51 | 47.15213 | -1.07005 | 38133 ft | 464 kts | 48° |
| 2026-04-30 18:51 | 47.19524 | -0.99906 | 38133 ft | 465 kts | 49° |
| 2026-04-30 18:52 | 47.23818 | -0.92814 | 38125 ft | 466 kts | 49° |
| 2026-04-30 18:52 | 47.28134 | -0.85661 | 38125 ft | 466 kts | 49° |
| 2026-04-30 18:53 | 47.32443 | -0.78502 | 38126 ft | 466 kts | 49° |
| 2026-04-30 18:53 | 47.36718 | -0.71380 | 38124 ft | 466 kts | 49° |
| 2026-04-30 18:54 | 47.41021 | -0.64192 | 38119 ft | 465 kts | 49° |
| 2026-04-30 18:54 | 47.45489 | -0.57358 | 38104 ft | 465 kts | 39° |
| 2026-04-30 18:55 | 47.50696 | -0.51613 | 38108 ft | 465 kts | 37° |
| 2026-04-30 18:55 | 47.58516 | -0.43172 | 38103 ft | 465 kts | 37° |
| 2026-04-30 18:56 | 47.66297 | -0.34587 | 38103 ft | 464 kts | 38° |
| 2026-04-30 18:57 | 47.74027 | -0.25980 | 38107 ft | 464 kts | 38° |
| 2026-04-30 18:57 | 47.79197 | -0.20207 | 38108 ft | 464 kts | 38° |
| 2026-04-30 18:58 | 47.86912 | -0.11567 | 38109 ft | 464 kts | 38° |
| 2026-04-30 18:59 | 47.94647 | -0.02873 | 38106 ft | 464 kts | 38° |
| 2026-04-30 19:00 | 48.04893 | 0.08695 | 38095 ft | 460 kts | 38° |
| 2026-04-30 19:01 | 48.15036 | 0.20207 | 38103 ft | 457 kts | 38° |
| 2026-04-30 19:02 | 48.22601 | 0.28831 | 38105 ft | 455 kts | 38° |
| 2026-04-30 19:03 | 48.32682 | 0.40374 | 38108 ft | 455 kts | 39° |
| 2026-04-30 19:04 | 48.42713 | 0.51919 | 38111 ft | 455 kts | 39° |
| 2026-04-30 19:05 | 48.52752 | 0.63531 | 38110 ft | 456 kts | 39° |
| 2026-04-30 19:06 | 48.62840 | 0.75262 | 38123 ft | 457 kts | 39° |
| 2026-04-30 19:06 | 48.70375 | 0.84064 | 38124 ft | 457 kts | 39° |
| 2026-04-30 19:07 | 48.77914 | 0.92855 | 38127 ft | 458 kts | 38° |
| 2026-04-30 19:08 | 48.88076 | 1.04539 | 38148 ft | 457 kts | 38° |
| 2026-04-30 19:09 | 48.95654 | 1.13319 | 38151 ft | 457 kts | 39° |
| 2026-04-30 19:09 | 48.99867 | 1.18216 | 38164 ft | 457 kts | 39° |
| 2026-04-30 19:10 | 49.09231 | 1.31314 | 38162 ft | 456 kts | 45° |
| 2026-04-30 19:11 | 49.16115 | 1.41315 | 38148 ft | 456 kts | 45° |
| 2026-04-30 19:12 | 49.20744 | 1.47957 | 38145 ft | 456 kts | 45° |
| 2026-04-30 19:12 | 49.25347 | 1.54566 | 38150 ft | 456 kts | 45° |
| 2026-04-30 19:13 | 49.34588 | 1.67899 | 38163 ft | 456 kts | 45° |
| 2026-04-30 19:14 | 49.39218 | 1.74608 | 38164 ft | 457 kts | 45° |
| 2026-04-30 19:14 | 49.43838 | 1.81322 | 38166 ft | 457 kts | 45° |
| 2026-04-30 19:15 | 49.48425 | 1.88006 | 38178 ft | 457 kts | 45° |
| 2026-04-30 19:15 | 49.55340 | 1.98145 | 38183 ft | 456 kts | 45° |
| 2026-04-30 19:16 | 49.59895 | 2.04894 | 38183 ft | 456 kts | 46° |
| 2026-04-30 19:17 | 49.66746 | 2.15076 | 38178 ft | 455 kts | 46° |
| 2026-04-30 19:17 | 49.73751 | 2.24954 | 38178 ft | 455 kts | 44° |
| 2026-04-30 19:18 | 49.80783 | 2.34710 | 38171 ft | 452 kts | 44° |
| 2026-04-30 19:19 | 49.85447 | 2.41258 | 38187 ft | 450 kts | 44° |
| 2026-04-30 19:19 | 49.92355 | 2.51014 | 38209 ft | 449 kts | 44° |
| 2026-04-30 19:20 | 49.96957 | 2.57537 | 38211 ft | 448 kts | 44° |
| 2026-04-30 19:20 | 50.01580 | 2.64105 | 38103 ft | 447 kts | 44° |
| 2026-04-30 19:21 | 50.03848 | 2.67335 | 37796 ft | 445 kts | 44° |
| 2026-04-30 19:21 | 50.08365 | 2.73774 | 37242 ft | 435 kts | 44° |
| 2026-04-30 19:22 | 50.12809 | 2.80130 | 36701 ft | 431 kts | 45° |
| 2026-04-30 19:22 | 50.19366 | 2.89539 | 35767 ft | 420 kts | 45° |
| 2026-04-30 19:23 | 50.25734 | 2.98711 | 34589 ft | 410 kts | 46° |
| 2026-04-30 19:24 | 50.29892 | 3.04721 | 33746 ft | 405 kts | 46° |
| 2026-04-30 19:24 | 50.31956 | 3.07709 | 33322 ft | 402 kts | 46° |
| 2026-04-30 19:24 | 50.35995 | 3.13567 | 32535 ft | 395 kts | 46° |
| 2026-04-30 19:25 | 50.41980 | 3.22277 | 31378 ft | 386 kts | 47° |
| 2026-04-30 19:26 | 50.45859 | 3.27939 | 30668 ft | 380 kts | 46° |
| 2026-04-30 19:26 | 50.49720 | 3.33585 | 29890 ft | 376 kts | 46° |
| 2026-04-30 19:26 | 50.51760 | 3.36148 | 29476 ft | 376 kts | 37° |
| 2026-04-30 19:27 | 50.56431 | 3.39745 | 28668 ft | 375 kts | 27° |
| 2026-04-30 19:27 | 50.61200 | 3.42922 | 27893 ft | 369 kts | 26° |
| 2026-04-30 19:28 | 50.63553 | 3.44505 | 27530 ft | 366 kts | 27° |
| 2026-04-30 19:28 | 50.68316 | 3.47317 | 26700 ft | 367 kts | 16° |
| 2026-04-30 19:29 | 50.73304 | 3.48936 | 25961 ft | 364 kts | 14° |
| 2026-04-30 19:29 | 50.75779 | 3.49706 | 25595 ft | 362 kts | 14° |
| 2026-04-30 19:30 | 50.83123 | 3.52083 | 24497 ft | 356 kts | 15° |
| 2026-04-30 19:30 | 50.87981 | 3.53709 | 23442 ft | 359 kts | 15° |
| 2026-04-30 19:31 | 50.92820 | 3.55337 | 22152 ft | 353 kts | 15° |
| 2026-04-30 19:31 | 50.95219 | 3.56147 | 21530 ft | 351 kts | 15° |
| 2026-04-30 19:31 | 50.99960 | 3.57750 | 20344 ft | 346 kts | 15° |
| 2026-04-30 19:32 | 51.02319 | 3.58550 | 19878 ft | 347 kts | 14° |
| 2026-04-30 19:32 | 51.04672 | 3.59348 | 19571 ft | 343 kts | 14° |
| 2026-04-30 19:32 | 51.06994 | 3.60136 | 19260 ft | 340 kts | 14° |
| 2026-04-30 19:32 | 51.09280 | 3.60913 | 18911 ft | 339 kts | 14° |
| 2026-04-30 19:33 | 51.11593 | 3.61700 | 18548 ft | 338 kts | 14° |
| 2026-04-30 19:33 | 51.13885 | 3.62481 | 18159 ft | 336 kts | 14° |
| 2026-04-30 19:33 | 51.16102 | 3.63575 | 17796 ft | 329 kts | 32° |
| 2026-04-30 19:33 | 51.17810 | 3.65874 | 17542 ft | 318 kts | 56° |
| 2026-04-30 19:34 | 51.19013 | 3.68794 | 17319 ft | 314 kts | 60° |
| 2026-04-30 19:34 | 51.20190 | 3.71717 | 17060 ft | 313 kts | 60° |
| 2026-04-30 19:34 | 51.22543 | 3.77524 | 16549 ft | 314 kts | 60° |
| 2026-04-30 19:35 | 51.23738 | 3.80456 | 16315 ft | 315 kts | 59° |
| 2026-04-30 19:35 | 51.24934 | 3.83384 | 16060 ft | 314 kts | 60° |
| 2026-04-30 19:35 | 51.26129 | 3.86302 | 15803 ft | 313 kts | 60° |
| 2026-04-30 19:35 | 51.27228 | 3.89285 | 15555 ft | 310 kts | 65° |
| 2026-04-30 19:36 | 51.28188 | 3.92358 | 15317 ft | 309 kts | 67° |
| 2026-04-30 19:36 | 51.29114 | 3.95453 | 15077 ft | 307 kts | 67° |
| 2026-04-30 19:36 | 51.30954 | 4.01615 | 14612 ft | 306 kts | 67° |
| 2026-04-30 19:37 | 51.31865 | 4.04634 | 14373 ft | 303 kts | 67° |
| 2026-04-30 19:37 | 51.32779 | 4.07644 | 14144 ft | 300 kts | 67° |
| 2026-04-30 19:37 | 51.33691 | 4.10640 | 13882 ft | 298 kts | 67° |
| 2026-04-30 19:37 | 51.34596 | 4.13605 | 13717 ft | 293 kts | 67° |
| 2026-04-30 19:38 | 51.35488 | 4.16528 | 13556 ft | 290 kts | 67° |
| 2026-04-30 19:38 | 51.36368 | 4.19410 | 13407 ft | 292 kts | 67° |
| 2026-04-30 19:38 | 51.37267 | 4.22362 | 13263 ft | 296 kts | 67° |
| 2026-04-30 19:38 | 51.38173 | 4.25338 | 13105 ft | 297 kts | 67° |
| 2026-04-30 19:39 | 51.39077 | 4.28304 | 12952 ft | 295 kts | 67° |
| 2026-04-30 19:39 | 51.39967 | 4.31227 | 12792 ft | 294 kts | 67° |
| 2026-04-30 19:39 | 51.40863 | 4.34175 | 12639 ft | 293 kts | 67° |
| 2026-04-30 19:39 | 51.41760 | 4.37127 | 12483 ft | 293 kts | 67° |
| 2026-04-30 19:40 | 51.42653 | 4.40071 | 12310 ft | 293 kts | 67° |
| 2026-04-30 19:40 | 51.43531 | 4.42971 | 12128 ft | 293 kts | 67° |
| 2026-04-30 19:40 | 51.44425 | 4.45926 | 11885 ft | 295 kts | 67° |
| 2026-04-30 19:40 | 51.45332 | 4.48928 | 11633 ft | 296 kts | 67° |
| 2026-04-30 19:41 | 51.46203 | 4.51915 | 11404 ft | 290 kts | 73° |
| 2026-04-30 19:41 | 51.46405 | 4.54994 | 10985 ft | 276 kts | 102° |
| 2026-04-30 19:41 | 51.45986 | 4.57938 | 10481 ft | 273 kts | 105° |
| 2026-04-30 19:41 | 51.45555 | 4.60903 | 9926 ft | 272 kts | 104° |
| 2026-04-30 19:42 | 51.45131 | 4.63845 | 9417 ft | 269 kts | 104° |
| 2026-04-30 19:42 | 51.44713 | 4.66765 | 8896 ft | 266 kts | 104° |
| 2026-04-30 19:42 | 51.44304 | 4.69648 | 8420 ft | 263 kts | 104° |
| 2026-04-30 19:42 | 51.43901 | 4.72492 | 7972 ft | 259 kts | 104° |
| 2026-04-30 19:43 | 51.43511 | 4.75259 | 7503 ft | 256 kts | 104° |
| 2026-04-30 19:43 | 51.43115 | 4.78059 | 6899 ft | 259 kts | 105° |
| 2026-04-30 19:43 | 51.42717 | 4.80878 | 6404 ft | 256 kts | 104° |
| 2026-04-30 19:44 | 51.41943 | 4.86362 | 5474 ft | 248 kts | 105° |
| 2026-04-30 19:44 | 51.41572 | 4.88990 | 5292 ft | 239 kts | 105° |
| 2026-04-30 19:44 | 51.41204 | 4.91583 | 5037 ft | 236 kts | 105° |
| 2026-04-30 19:44 | 51.40842 | 4.94131 | 4766 ft | 234 kts | 105° |
| 2026-04-30 19:45 | 51.40485 | 4.96634 | 4523 ft | 231 kts | 106° |
| 2026-04-30 19:45 | 51.40134 | 4.99100 | 4417 ft | 222 kts | 105° |
| 2026-04-30 19:45 | 51.39797 | 5.01472 | 4321 ft | 213 kts | 105° |
| 2026-04-30 19:45 | 51.39471 | 5.03757 | 4232 ft | 209 kts | 106° |
| 2026-04-30 19:46 | 51.39142 | 5.06051 | 3992 ft | 210 kts | 106° |
| 2026-04-30 19:46 | 51.38820 | 5.08295 | 3753 ft | 209 kts | 106° |
| 2026-04-30 19:46 | 51.38496 | 5.10552 | 3506 ft | 207 kts | 106° |
| 2026-04-30 19:46 | 51.38169 | 5.12790 | 3299 ft | 201 kts | 108° |
| 2026-04-30 19:47 | 51.37530 | 5.14714 | 2993 ft | 194 kts | 127° |
| 2026-04-30 19:47 | 51.36996 | 5.15843 | 2815 ft | 189 kts | 126° |
| 2026-04-30 19:47 | 51.35996 | 5.18040 | 2514 ft | 178 kts | 125° |
| 2026-04-30 19:47 | 51.35284 | 5.19605 | 2280 ft | 171 kts | 124° |
| 2026-04-30 19:48 | 51.34599 | 5.21110 | 2080 ft | 163 kts | 124° |
| 2026-04-30 19:48 | 51.33995 | 5.22540 | 2003 ft | 148 kts | 113° |
| 2026-04-30 19:48 | 51.34108 | 5.24074 | 2010 ft | 152 kts | 62° |
| 2026-04-30 19:48 | 51.34800 | 5.25405 | 2006 ft | 157 kts | 58° |
| 2026-04-30 19:49 | 51.35589 | 5.26630 | 1995 ft | 158 kts | 51° |
| 2026-04-30 19:49 | 51.37313 | 5.28790 | 1717 ft | 152 kts | 45° |
| 2026-04-30 19:49 | 51.38168 | 5.29756 | 1519 ft | 152 kts | 45° |
| 2026-04-30 19:50 | 51.39027 | 5.30722 | 1346 ft | 146 kts | 45° |
| 2026-04-30 19:50 | 51.39833 | 5.31626 | 1114 ft | 136 kts | 45° |
| 2026-04-30 19:50 | 51.40608 | 5.32505 | 935 ft | 137 kts | 42° |
| 2026-04-30 19:50 | 51.41387 | 5.33389 | 764 ft | 140 kts | 40° |
| 2026-04-30 19:51 | 51.42194 | 5.34283 | 585 ft | 141 kts | 39° |
| 2026-04-30 19:51 | 51.43005 | 5.35194 | 381 ft | 144 kts | 38° |
| 2026-04-30 19:51 | 51.43832 | 5.36118 | 207 ft | 145 kts | 38° |
| 2026-04-30 19:51 | 51.44646 | 5.37041 | 68 ft | 134 kts | 36° |
| 2026-04-30 19:52 | 51.45284 | 5.37756 | 74 ft | 90 kts | 35° |
| 2026-04-30 19:52 | 51.45519 | 5.38019 | 76 ft | 11 kts | 35° |
| 2026-04-30 19:52 | 51.45532 | 5.38119 | 74 ft | 9 kts | 121° |
| 2026-04-30 19:52 | 51.45501 | 5.38190 | 65 ft | 2 kts | 124° |
| 2026-04-30 19:53 | 51.45501 | 5.38191 | 65 ft | 0 kts | 125° |
| 2026-04-30 19:53 | 51.45500 | 5.38192 | 65 ft | 0 kts | 125° |
| 2026-04-30 19:53 | 51.45490 | 5.38217 | 74 ft | 7 kts | 122° |
| 2026-04-30 19:54 | 51.45441 | 5.38327 | 74 ft | 16 kts | 126° |
| 2026-04-30 19:54 | 51.45386 | 5.38417 | 71 ft | 16 kts | 160° |
| 2026-04-30 19:54 | 51.45294 | 5.38323 | 73 ft | 17 kts | 216° |
| 2026-04-30 19:54 | 51.45272 | 5.38130 | 67 ft | 17 kts | 304° |
| 2026-04-30 19:55 | 51.45316 | 5.38029 | 68 ft | 16 kts | 305° |
| 2026-04-30 19:55 | 51.45379 | 5.37884 | 74 ft | 15 kts | 304° |
| 2026-04-30 19:55 | 51.45441 | 5.37743 | 70 ft | 17 kts | 310° |
| 2026-04-30 19:55 | 51.45542 | 5.37766 | 68 ft | 17 kts | 34° |
| 2026-04-30 19:56 | 51.45650 | 5.37886 | 74 ft | 21 kts | 35° |
| 2026-04-30 19:56 | 51.45778 | 5.38032 | 65 ft | 24 kts | 36° |
| 2026-04-30 19:56 | 51.45913 | 5.38182 | 71 ft | 23 kts | 35° |
| 2026-04-30 19:56 | 51.46042 | 5.38326 | 67 ft | 22 kts | 34° |
| 2026-04-30 19:57 | 51.46153 | 5.38453 | 70 ft | 15 kts | 45° |
| 2026-04-30 19:57 | 51.46140 | 5.38601 | 69 ft | 15 kts | 126° |
| 2026-04-30 19:57 | 51.46076 | 5.38745 | 67 ft | 18 kts | 125° |
| 2026-04-30 19:57 | 51.46004 | 5.38908 | 74 ft | 16 kts | 125° |
| 2026-04-30 19:58 | 51.45940 | 5.38988 | 72 ft | 10 kts | 184° |
| 2026-04-30 19:58 | 51.45884 | 5.38937 | 74 ft | 8 kts | 213° |
| 2026-04-30 19:58 | 51.45844 | 5.38963 | 72 ft | 6 kts | 128° |
| 2026-04-30 19:58 | 51.45826 | 5.39007 | 71 ft | 3 kts | 125° |
| 2026-04-30 19:59 | 51.45821 | 5.39017 | 74 ft | 0 kts | 125° |